Time;durP1;ratioP1;P1;durP2;ratioP2;P2;SDS_P1;SDS_P2;PMS_P1;PMS_P2;Temp;Humidity;BMP_temperature;BMP_pressure;BME280_temperature;BME280_humidity;BME280_pressure;Samples;Min_cycle;Max_cycle;Signal;HPM_P1;HPM_P2
2021/10/11 00:01:11;;;;;;;58.87;29.37;;;;;;;1.65;71.81;97928.33;1756185;80;25788;-87
2021/10/11 00:03:38;;;;;;;62.85;30.85;;;;;;;1.61;71.88;97926.44;1752475;80;26829;-88
2021/10/11 00:06:04;;;;;;;70.22;32.75;;;;;;;1.58;72.00;97921.88;1725785;80;25760;-87
2021/10/11 00:08:31;;;;;;;66.90;32.42;;;;;;;1.61;72.14;97927.77;1731695;80;25787;-87
2021/10/11 00:10:57;;;;;;;78.25;37.35;;;;;;;1.62;72.13;97920.13;1747510;80;27445;-86
2021/10/11 00:13:24;;;;;;;89.22;41.08;;;;;;;1.64;72.12;97923.50;1756020;80;25607;-86
2021/10/11 00:15:51;;;;;;;91.08;39.80;;;;;;;1.65;72.14;97925.17;1755758;80;25772;-87
2021/10/11 00:18:18;;;;;;;84.20;35.95;;;;;;;1.65;72.10;97923.01;1755841;80;25823;-86
2021/10/11 00:20:45;;;;;;;81.78;37.25;;;;;;;1.62;72.13;97928.11;1756205;80;25847;-86
2021/10/11 00:23:11;;;;;;;71.35;33.05;;;;;;;1.60;72.08;97927.41;1756343;80;27570;-86
2021/10/11 00:25:39;;;;;;;68.83;31.57;;;;;;;1.59;72.08;97919.08;1756162;80;25290;-87
2021/10/11 00:28:06;;;;;;;68.97;31.77;;;;;;;1.58;72.07;97920.06;1756303;80;25282;-87
2021/10/11 00:30:34;;;;;;;62.43;31.23;;;;;;;1.55;72.10;97915.05;1756301;80;26094;-87
2021/10/11 00:33:02;;;;;;;70.72;31.73;;;;;;;1.53;72.21;97911.69;1756373;80;25715;-87
2021/10/11 00:35:28;;;;;;;59.80;29.95;;;;;;;1.52;72.24;97913.99;1756224;80;28203;-87
2021/10/11 00:37:55;;;;;;;58.38;30.92;;;;;;;1.50;72.22;97911.13;1756257;80;26057;-87
2021/10/11 00:40:21;;;;;;;58.35;28.47;;;;;;;1.52;72.34;97915.33;1756634;80;25314;-86
2021/10/11 00:42:48;;;;;;;60.20;30.15;;;;;;;1.52;72.41;97913.16;1756498;80;25773;-87
2021/10/11 00:45:15;;;;;;;57.53;30.00;;;;;;;1.47;72.38;97905.59;1756542;80;25788;-86
2021/10/11 00:47:41;;;;;;;56.95;29.02;;;;;;;1.40;72.32;97904.48;1756290;80;27427;-86
2021/10/11 00:50:09;;;;;;;59.90;31.00;;;;;;;1.40;72.47;97903.16;1756366;80;25826;-86
2021/10/11 00:52:36;;;;;;;56.95;29.35;;;;;;;1.40;72.49;97903.16;1741462;80;25850;-86
2021/10/11 00:55:04;;;;;;;54.80;27.98;;;;;;;1.40;72.53;97903.16;1750467;80;25791;-86
2021/10/11 00:57:31;;;;;;;47.90;27.22;;;;;;;1.41;72.51;97898.19;1755852;80;25808;-86
2021/10/11 00:59:57;;;;;;;53.02;28.32;;;;;;;1.39;72.52;97899.66;1756234;81;27539;-88
2021/10/11 01:02:24;;;;;;;57.60;28.40;;;;;;;1.39;72.54;97899.66;1756393;80;25799;-86
2021/10/11 01:04:51;;;;;;;51.33;28.10;;;;;;;1.38;72.55;97890.48;1756491;80;26158;-89
2021/10/11 01:07:17;;;;;;;50.70;28.17;;;;;;;1.38;72.60;97885.16;1756292;80;25819;-87
2021/10/11 01:09:44;;;;;;;46.33;27.07;;;;;;;1.40;72.63;97885.87;1748584;80;26574;-86
2021/10/11 01:12:10;;;;;;;48.42;26.77;;;;;;;1.41;72.71;97883.56;1743430;80;27443;-87
2021/10/11 01:14:37;;;;;;;45.25;25.92;;;;;;;1.41;72.71;97872.92;1756389;80;25760;-87
2021/10/11 01:17:04;;;;;;;48.02;26.10;;;;;;;1.39;72.73;97869.55;1756163;80;25788;-89
2021/10/11 01:19:30;;;;;;;55.60;27.80;;;;;;;1.31;72.70;97874.77;1756200;80;26049;-87
2021/10/11 01:21:57;;;;;;;51.55;28.57;;;;;;;1.21;72.77;97867.29;1756416;80;25739;-89
2021/10/11 01:24:24;;;;;;;55.52;28.47;;;;;;;1.22;73.01;97867.61;1756515;80;27590;-88
2021/10/11 01:26:50;;;;;;;52.15;27.98;;;;;;;1.25;73.13;97869.50;1756325;80;26356;-87
2021/10/11 01:29:18;;;;;;;58.65;28.77;;;;;;;1.30;73.12;97873.08;1756510;80;25737;-88
2021/10/11 01:31:45;;;;;;;60.60;30.57;;;;;;;1.30;73.06;97865.10;1756484;80;26486;-88
2021/10/11 01:34:12;;;;;;;63.33;32.17;;;;;;;1.30;73.02;97865.10;1756415;80;25612;-87
2021/10/11 01:36:39;;;;;;;60.55;29.60;;;;;;;1.29;73.09;97860.76;1756442;80;28243;-86
2021/10/11 01:39:09;;;;;;;63.15;31.75;;;;;;;1.29;73.08;97854.11;1754996;80;25791;-87
2021/10/11 01:41:38;;;;;;;65.32;31.75;;;;;;;1.29;73.08;97855.44;1756260;80;25839;-87
2021/10/11 01:44:06;;;;;;;59.33;29.18;;;;;;;1.26;73.05;97852.56;1756331;80;25962;-87
2021/10/11 01:46:33;;;;;;;54.15;29.42;;;;;;;1.26;73.15;97853.90;1756511;80;25564;-87
2021/10/11 01:49:00;;;;;;;59.83;30.85;;;;;;;1.27;73.18;97852.08;1756412;80;27443;-87
2021/10/11 01:51:26;;;;;;;55.03;29.70;;;;;;;1.28;73.18;97849.28;1756368;80;25768;-87
2021/10/11 01:53:53;;;;;;;57.53;29.07;;;;;;;1.28;73.14;97846.63;1756337;80;25739;-86
2021/10/11 01:56:19;;;;;;;56.37;29.07;;;;;;;1.26;73.12;97848.58;1756436;80;26350;-87
2021/10/11 01:58:46;;;;;;;55.38;28.40;;;;;;;1.22;73.11;97845.00;1756330;80;26389;-87
2021/10/11 02:01:13;;;;;;;55.52;27.60;;;;;;;1.22;73.14;97845.00;1756271;80;27610;-86
2021/10/11 02:03:39;;;;;;;52.48;27.98;;;;;;;1.21;73.17;97839.37;1756227;80;25984;-87
2021/10/11 02:06:06;;;;;;;53.63;26.27;;;;;;;1.21;73.19;97839.37;1756546;80;25768;-87
2021/10/11 02:08:32;;;;;;;43.30;24.90;;;;;;;1.19;73.19;97840.00;1756559;80;25698;-87
2021/10/11 02:10:59;;;;;;;47.98;26.37;;;;;;;1.17;73.26;97839.30;1756552;80;25828;-86
2021/10/11 02:13:25;;;;;;;45.55;25.70;;;;;;;1.17;73.36;97842.80;1756082;80;27436;-86
2021/10/11 02:15:52;;;;;;;55.12;27.98;;;;;;;1.20;73.39;97839.02;1756368;80;25749;-88
2021/10/11 02:18:19;;;;;;;50.83;29.23;;;;;;;1.21;73.37;97835.38;1756347;80;25332;-86
2021/10/11 02:20:45;;;;;;;59.40;30.75;;;;;;;1.19;73.34;97830.69;1745270;81;25812;-87
2021/10/11 02:23:12;;;;;;;57.08;32.42;;;;;;;1.18;73.36;97834.33;1742030;81;25251;-86
2021/10/11 02:25:38;;;;;;;59.05;32.15;;;;;;;1.16;73.41;97825.65;1742071;81;27545;-86
2021/10/11 02:28:05;;;;;;;62.67;30.52;;;;;;;1.17;73.44;97827.33;1741930;81;25774;-86
2021/10/11 02:30:32;;;;;;;51.53;26.10;;;;;;;1.14;73.40;97823.61;1741992;81;25712;-88
2021/10/11 02:32:58;;;;;;;48.60;27.45;;;;;;;1.12;73.36;97822.42;1742030;81;25839;-87
2021/10/11 02:35:25;;;;;;;51.48;25.97;;;;;;;1.09;73.39;97814.72;1741965;81;25764;-86
2021/10/11 02:37:51;;;;;;;43.35;24.82;;;;;;;1.08;73.49;97824.55;1741936;81;28017;-86
2021/10/11 02:40:19;;;;;;;42.35;22.48;;;;;;;1.06;73.47;97819.86;1741653;81;26042;-87
2021/10/11 02:42:45;;;;;;;39.42;23.12;;;;;;;1.04;73.55;97823.14;1741937;81;25733;-86
2021/10/11 02:45:12;;;;;;;41.20;23.40;;;;;;;1.04;73.56;97820.48;1727587;81;25847;-90
2021/10/11 02:47:38;;;;;;;46.10;23.12;;;;;;;1.04;73.59;97813.00;1738682;81;25830;-86
2021/10/11 02:50:06;;;;;;;41.88;24.00;;;;;;;1.03;73.56;97816.15;1742308;81;27536;-88
2021/10/11 02:52:33;;;;;;;42.67;24.60;;;;;;;1.02;73.55;97809.15;1742183;81;25796;-89
2021/10/11 02:55:01;;;;;;;45.35;24.23;;;;;;;1.00;73.52;97808.45;1742266;81;26428;-86
2021/10/11 02:57:28;;;;;;;46.65;24.37;;;;;;;0.97;73.64;97813.20;1742150;81;25781;-89
2021/10/11 02:59:54;;;;;;;46.28;25.52;;;;;;;0.95;73.66;97810.71;1741959;81;25716;-89
2021/10/11 03:02:21;;;;;;;44.45;25.15;;;;;;;0.94;73.67;97806.86;1732242;82;27411;-86
2021/10/11 03:04:49;;;;;;;43.20;24.00;;;;;;;0.92;73.66;97809.66;1731536;81;26066;-87
2021/10/11 03:07:18;;;;;;;41.30;23.65;;;;;;;0.92;73.77;97807.00;1721133;81;25279;-85
2021/10/11 03:09:45;;;;;;;41.25;23.10;;;;;;;0.94;73.80;97802.38;1741714;81;26009;-87
2021/10/11 03:12:12;;;;;;;43.75;24.52;;;;;;;0.91;73.76;97806.64;1741767;81;25818;-88
2021/10/11 03:14:39;;;;;;;43.40;24.23;;;;;;;0.91;73.73;97805.81;1742010;81;27933;-89
2021/10/11 03:17:06;;;;;;;41.13;24.80;;;;;;;0.90;73.73;97808.11;1741944;81;25755;-89
2021/10/11 03:19:33;;;;;;;43.42;23.95;;;;;;;0.89;73.74;97813.92;1743619;81;25752;-86
2021/10/11 03:22:00;;;;;;;41.25;21.42;;;;;;;0.89;73.76;97813.08;1756436;80;25743;-88
2021/10/11 03:24:26;;;;;;;40.70;22.52;;;;;;;0.87;73.71;97805.73;1756444;80;25723;-85
2021/10/11 03:26:53;;;;;;;39.40;22.65;;;;;;;0.86;73.77;97807.55;1756321;80;27584;-85
2021/10/11 03:29:20;;;;;;;35.90;21.62;;;;;;;0.86;73.81;97806.70;1756342;80;26287;-86
2021/10/11 03:31:47;;;;;;;46.28;23.42;;;;;;;0.84;73.89;97794.08;1756401;80;25838;-85
2021/10/11 03:34:14;;;;;;;39.33;22.50;;;;;;;0.84;73.90;97798.91;1756461;80;26553;-87
2021/10/11 03:36:42;;;;;;;40.52;22.52;;;;;;;0.83;73.82;97799.04;1756425;80;25686;-87
2021/10/11 03:39:09;;;;;;;41.10;23.47;;;;;;;0.84;73.90;97796.73;1756307;80;27942;-86
2021/10/11 03:41:36;;;;;;;36.70;22.37;;;;;;;0.85;73.91;97792.58;1756237;80;25954;-87
2021/10/11 03:44:05;;;;;;;42.70;24.15;;;;;;;0.89;73.89;97789.16;1756399;80;25293;-86
2021/10/11 03:46:31;;;;;;;42.00;22.27;;;;;;;0.87;73.80;97790.63;1756237;80;26785;-86
2021/10/11 03:48:57;;;;;;;49.60;24.00;;;;;;;0.84;73.77;97788.27;1756304;80;25769;-85
2021/10/11 03:51:24;;;;;;;47.95;24.45;;;;;;;0.78;73.82;97785.33;1756363;80;27423;-85
2021/10/11 03:53:50;;;;;;;50.30;24.90;;;;;;;0.72;73.99;97784.09;1756241;80;25939;-86
2021/10/11 03:56:17;;;;;;;45.73;24.70;;;;;;;0.72;74.09;97784.09;1756209;80;25412;-86
2021/10/11 03:58:43;;;;;;;45.25;25.37;;;;;;;0.75;74.12;97786.92;1756405;80;25895;-85
2021/10/11 04:01:10;;;;;;;49.80;25.17;;;;;;;0.74;74.08;97788.74;1756016;80;25871;-85
2021/10/11 04:03:37;;;;;;;46.85;24.92;;;;;;;0.71;74.00;97782.41;1756216;80;27390;-86
2021/10/11 04:06:03;;;;;;;48.87;24.77;;;;;;;0.69;73.96;97777.23;1756256;80;25784;-85
2021/10/11 04:08:39;;;;;;;46.92;24.72;;;;;;;0.70;74.02;97779.39;1756311;80;25729;-86
2021/10/11 04:11:45;;;;;;;47.13;22.82;;;;;;;0.69;74.00;97780.38;1755398;80;25750;-85
2021/10/11 04:13:34;;;;;;;51.48;27.48;;;;;;;0.64;74.07;97767.98;1706456;80;25319;-86
2021/10/11 04:16:00;;;;;;;54.20;27.17;;;;;;;0.69;74.15;97777.72;1756376;80;27524;-86
2021/10/11 04:18:27;;;;;;;53.55;26.73;;;;;;;0.69;74.14;97775.90;1756241;80;25302;-84
2021/10/11 04:20:54;;;;;;;54.10;27.40;;;;;;;0.70;74.11;97776.73;1756157;80;25707;-85
2021/10/11 04:23:20;;;;;;;54.73;28.02;;;;;;;0.68;74.08;97781.34;1755905;80;25776;-85
2021/10/11 04:25:47;;;;;;;54.00;28.00;;;;;;;0.68;74.09;97773.38;1756412;80;25796;-85
2021/10/11 04:28:15;;;;;;;51.37;26.45;;;;;;;0.68;74.07;97770.72;1756320;80;27365;-86
2021/10/11 04:30:43;;;;;;;49.20;25.85;;;;;;;0.68;74.11;97770.72;1756134;80;25729;-85
2021/10/11 04:33:09;;;;;;;57.17;26.05;;;;;;;0.68;74.07;97769.39;1756291;80;25874;-85
2021/10/11 04:35:36;;;;;;;50.00;25.48;;;;;;;0.67;73.98;97769.88;1756326;80;25778;-85
2021/10/11 04:38:03;;;;;;;53.58;27.87;;;;;;;0.65;73.97;97768.34;1756227;80;26555;-85
2021/10/11 04:40:29;;;;;;;50.38;25.72;;;;;;;0.66;74.12;97770.86;1746122;80;27421;-89
2021/10/11 04:42:56;;;;;;;51.25;26.48;;;;;;;0.65;74.05;97774.49;1746030;80;25752;-86
2021/10/11 04:45:28;;;;;;;51.58;25.92;;;;;;;0.63;74.11;97770.30;1735168;80;25346;-90
2021/10/11 04:47:51;;;;;;;54.55;28.30;;;;;;;0.61;74.05;97773.08;1755708;80;26253;-89
2021/10/11 04:50:18;;;;;;;51.20;27.07;;;;;;;0.56;74.02;97768.70;1756216;80;25728;-86
2021/10/11 04:52:44;;;;;;;62.85;27.10;;;;;;;0.57;74.10;97765.55;1756280;80;28210;-85
2021/10/11 04:55:11;;;;;;;52.03;25.20;;;;;;;0.56;74.13;97762.55;1756204;80;25720;-84
2021/10/11 04:57:38;;;;;;;57.73;26.93;;;;;;;0.54;74.13;97762.68;1756351;80;25669;-85
2021/10/11 05:00:06;;;;;;;53.63;27.02;;;;;;;0.48;74.09;97763.26;1756389;80;25760;-86
2021/10/11 05:02:33;;;;;;;59.95;28.23;;;;;;;0.49;74.16;97765.39;1756352;80;25736;-85
2021/10/11 05:04:59;;;;;;;57.33;30.00;;;;;;;0.47;74.17;97765.56;1756342;80;27649;-85
2021/10/11 05:07:26;;;;;;;62.43;32.28;;;;;;;0.48;74.18;97763.75;1756176;80;25725;-86
2021/10/11 05:09:53;;;;;;;63.48;31.62;;;;;;;0.48;74.19;97766.41;1756458;80;25812;-84
2021/10/11 05:12:19;;;;;;;60.00;30.43;;;;;;;0.46;74.20;97765.70;1756383;80;25834;-85
2021/10/11 05:14:46;;;;;;;55.17;30.48;;;;;;;0.44;74.18;97771.14;1756340;80;25697;-85
2021/10/11 05:17:12;;;;;;;54.38;29.63;;;;;;;0.44;74.33;97766.32;1756160;80;27997;-84
2021/10/11 05:19:39;;;;;;;53.25;28.32;;;;;;;0.46;74.35;97762.55;1756059;80;25805;-84
2021/10/11 05:22:05;;;;;;;52.17;27.82;;;;;;;0.47;74.35;97764.23;1756043;80;25944;-87
2021/10/11 05:24:32;;;;;;;53.40;26.70;;;;;;;0.49;74.38;97762.73;1756094;80;26414;-85
2021/10/11 05:26:59;;;;;;;49.93;25.68;;;;;;;0.48;74.39;97756.62;1756553;80;25893;-84
2021/10/11 05:29:26;;;;;;;54.25;27.45;;;;;;;0.46;74.41;97756.41;1756547;80;27389;-86
2021/10/11 05:31:54;;;;;;;51.30;26.45;;;;;;;0.44;74.56;97759.68;1756278;80;25806;-89
2021/10/11 05:34:21;;;;;;;60.30;28.30;;;;;;;0.43;74.60;97761.98;1756339;80;25911;-86
2021/10/11 05:36:48;;;;;;;52.43;27.40;;;;;;;0.41;74.73;97762.13;1756405;80;25685;-86
2021/10/11 05:39:14;;;;;;;49.53;27.35;;;;;;;0.44;74.74;97763.66;1756294;80;26372;-85
2021/10/11 05:41:41;;;;;;;53.55;27.87;;;;;;;0.46;74.76;97763.05;1756361;81;27551;-86
2021/10/11 05:44:07;;;;;;;59.25;28.38;;;;;;;0.48;74.66;97763.75;1727466;81;26036;-85
2021/10/11 05:46:34;;;;;;;59.30;28.65;;;;;;;0.49;74.63;97766.72;1751888;80;25906;-86
2021/10/11 05:49:02;;;;;;;56.98;27.60;;;;;;;0.51;74.72;97764.28;1739695;80;25850;-86
2021/10/11 05:51:28;;;;;;;57.78;28.00;;;;;;;0.48;74.63;97761.93;1756266;80;25708;-85
2021/10/11 05:53:55;;;;;;;50.17;30.02;;;;;;;0.45;74.79;97759.55;1752109;80;27461;-87
2021/10/11 05:56:21;;;;;;;54.95;28.87;;;;;;;0.44;74.83;97762.34;1746655;80;26305;-85
2021/10/11 05:58:48;;;;;;;56.23;28.15;;;;;;;0.47;74.93;97762.06;1756203;80;25689;-86
2021/10/11 06:01:15;;;;;;;56.33;30.68;;;;;;;0.49;74.88;97764.06;1756243;80;25834;-85
2021/10/11 06:03:41;;;;;;;54.40;29.55;;;;;;;0.52;74.92;97765.13;1756697;80;25765;-85
2021/10/11 06:06:08;;;;;;;58.48;28.90;;;;;;;0.54;74.95;97761.84;1756345;80;27469;-87
2021/10/11 06:08:34;;;;;;;59.77;28.50;;;;;;;0.59;75.00;97767.59;1756134;80;25851;-86
2021/10/11 06:11:01;;;;;;;51.92;29.00;;;;;;;0.62;75.04;97775.25;1756312;80;25833;-88
2021/10/11 06:13:28;;;;;;;57.23;29.90;;;;;;;0.64;75.03;97767.50;1756285;80;25727;-87
2021/10/11 06:15:54;;;;;;;58.33;31.10;;;;;;;0.68;75.08;97767.58;1756234;80;25692;-87
2021/10/11 06:18:21;;;;;;;63.08;32.17;;;;;;;0.73;75.16;97765.80;1726530;80;27774;-88
2021/10/11 06:20:47;;;;;;;59.27;33.48;;;;;;;0.76;75.24;97765.53;1756156;80;25731;-88
2021/10/11 06:23:14;;;;;;;57.45;31.33;;;;;;;0.78;75.42;97768.89;1756209;80;25775;-87
2021/10/11 06:25:43;;;;;;;60.23;30.32;;;;;;;0.84;75.50;97759.03;1756134;80;25734;-88
2021/10/11 06:28:14;;;;;;;58.10;30.95;;;;;;;0.87;75.56;97749.42;1756422;80;25740;-88
2021/10/11 06:30:38;;;;;;;58.92;31.00;;;;;;;0.92;75.74;97748.52;1750603;80;27539;-88
2021/10/11 06:33:05;;;;;;;68.10;32.78;;;;;;;1.01;75.85;97753.46;1740571;80;25855;-87
2021/10/11 06:35:32;;;;;;;58.40;31.37;;;;;;;1.06;75.86;97752.06;1756258;80;25786;-91
2021/10/11 06:37:58;;;;;;;55.95;30.43;;;;;;;1.15;76.01;97744.20;1742447;81;25768;-91
2021/10/11 06:40:25;;;;;;;64.50;32.42;;;;;;;1.22;76.13;97739.96;1737167;80;25724;-92
2021/10/11 06:42:51;;;;;;;59.55;31.45;;;;;;;1.30;76.17;97742.76;1756453;80;27344;-91
2021/10/11 06:45:18;;;;;;;65.83;31.40;;;;;;;1.36;76.21;97737.68;1748170;80;26652;-87
2021/10/11 06:47:44;;;;;;;57.78;31.90;;;;;;;1.45;76.24;97739.45;1743717;80;25902;-86
2021/10/11 06:50:11;;;;;;;55.95;29.30;;;;;;;1.55;76.31;97735.94;1756414;80;26527;-90
2021/10/11 06:52:38;;;;;;;44.48;25.75;;;;;;;1.64;76.33;97731.89;1756441;80;25804;-90
2021/10/11 06:55:06;;;;;;;48.90;27.35;;;;;;;1.75;76.42;97727.70;1756348;80;27201;-87
2021/10/11 06:57:32;;;;;;;50.45;28.17;;;;;;;1.84;76.42;97727.30;1756390;80;25685;-89
2021/10/11 06:59:59;;;;;;;51.58;26.50;;;;;;;1.95;76.42;97724.92;1756046;80;25651;-89
2021/10/11 07:02:26;;;;;;;52.60;28.70;;;;;;;2.04;76.41;97732.87;1756388;80;25720;-86
2021/10/11 07:05:04;;;;;;;57.23;30.80;;;;;;;2.15;76.44;97722.48;1756285;80;25771;-87
2021/10/11 07:07:29;;;;;;;54.80;30.70;;;;;;;2.26;76.45;97720.94;1755326;80;27372;-86
2021/10/11 07:09:55;;;;;;;61.30;31.60;;;;;;;2.40;76.53;97713.75;1756303;80;25745;-88
2021/10/11 07:12:22;;;;;;;56.02;32.05;;;;;;;2.54;76.50;97719.84;1723471;82;25373;-86
2021/10/11 07:14:50;;;;;;;55.52;31.20;;;;;;;2.67;76.44;97717.28;1745913;80;25767;-86
2021/10/11 07:17:17;;;;;;;55.28;32.03;;;;;;;2.87;76.50;97708.13;1756241;80;25811;-86
2021/10/11 07:19:46;;;;;;;58.23;31.65;;;;;;;3.11;76.40;97698.95;1756391;80;27381;-89
2021/10/11 07:22:16;;;;;;;52.73;30.62;;;;;;;3.38;76.26;97697.91;1732623;81;26743;-85
2021/10/11 07:24:44;;;;;;;50.00;30.55;;;;;;;3.64;75.96;97704.53;1775069;79;25675;-89
2021/10/11 07:27:11;;;;;;;51.23;30.62;;;;;;;3.88;75.77;97702.45;1778748;79;26423;-87
2021/10/11 07:29:38;;;;;;;55.38;29.67;;;;;;;4.14;75.61;97699.19;1779011;79;26134;-87
2021/10/11 07:32:07;;;;;;;53.78;30.95;;;;;;;4.44;75.38;97697.74;1778835;79;28213;-87
2021/10/11 07:34:34;;;;;;;50.50;29.92;;;;;;;4.74;75.23;97694.06;1778765;79;25830;-89
2021/10/11 07:37:01;;;;;;;53.30;29.02;;;;;;;5.05;75.03;97700.41;1778978;80;25348;-87
2021/10/11 07:39:28;;;;;;;52.55;29.15;;;;;;;5.35;74.73;97690.28;1778818;80;26397;-89
2021/10/11 07:41:55;;;;;;;50.10;29.60;;;;;;;5.67;74.42;97683.17;1778861;80;25798;-86
2021/10/11 07:44:21;;;;;;;60.03;31.05;;;;;;;5.98;74.28;97677.34;1778909;79;27605;-88
2021/10/11 07:46:54;;;;;;;48.63;26.95;;;;;;;6.31;74.01;97676.63;1778727;79;25790;-88
2021/10/11 07:49:16;;;;;;;48.65;28.45;;;;;;;6.61;73.55;97673.58;1777195;79;25846;-87
2021/10/11 07:51:43;;;;;;;43.33;26.33;;;;;;;6.91;73.20;97675.81;1778890;79;26281;-87
2021/10/11 07:54:10;;;;;;;49.88;28.00;;;;;;;7.21;72.63;97674.87;1778711;80;25853;-87
2021/10/11 07:56:41;;;;;;;50.78;27.55;;;;;;;7.44;72.21;97662.70;1778959;79;26762;-87
2021/10/11 07:59:05;;;;;;;56.20;29.05;;;;;;;7.72;71.90;97670.10;1756032;79;25857;-87
2021/10/11 08:01:31;;;;;;;48.08;26.97;;;;;;;7.85;71.48;97667.55;1779037;79;25695;-87
2021/10/11 08:03:58;;;;;;;42.08;25.68;;;;;;;7.99;71.11;97665.36;1757116;80;26549;-86
2021/10/11 08:06:24;;;;;;;44.03;24.63;;;;;;;8.06;70.52;97661.42;1778877;79;25737;-88
2021/10/11 08:08:51;;;;;;;52.03;25.57;;;;;;;8.01;70.08;97652.56;1778655;79;27558;-87
2021/10/11 08:11:18;;;;;;;40.00;24.57;;;;;;;8.07;70.24;97651.83;1778070;80;26224;-87
2021/10/11 08:13:44;;;;;;;39.95;23.85;;;;;;;8.26;69.80;97657.09;1778429;79;25730;-87
2021/10/11 08:16:11;;;;;;;41.50;23.50;;;;;;;8.37;69.24;97661.16;1778910;79;25767;-86
2021/10/11 08:18:37;;;;;;;43.42;24.43;;;;;;;8.54;69.34;97661.24;1778937;79;25411;-86
2021/10/11 08:21:04;;;;;;;36.58;25.15;;;;;;;8.79;69.37;97659.82;1778355;79;27350;-87
2021/10/11 08:23:36;;;;;;;40.85;26.10;;;;;;;9.07;69.16;97661.68;1741828;82;25842;-86
2021/10/11 08:26:02;;;;;;;40.25;26.57;;;;;;;9.34;68.67;97650.91;1711276;82;25733;-88
2021/10/11 08:28:29;;;;;;;44.77;28.45;;;;;;;9.60;68.24;97648.89;1728509;82;26441;-88
2021/10/11 08:30:56;;;;;;;43.08;27.20;;;;;;;9.89;68.07;97649.66;1728503;82;25828;-86
2021/10/11 08:33:23;;;;;;;45.45;26.70;;;;;;;10.15;67.64;97641.64;1728516;82;27452;-87
2021/10/11 08:35:49;;;;;;;45.38;25.30;;;;;;;10.37;67.41;97645.91;1728412;82;26076;-87
2021/10/11 08:38:16;;;;;;;44.55;25.40;;;;;;;10.63;66.81;97632.95;1728537;82;25803;-87
2021/10/11 08:40:43;;;;;;;44.33;24.90;;;;;;;10.86;66.06;97635.27;1727494;82;25918;-87
2021/10/11 08:43:09;;;;;;;40.40;24.95;;;;;;;11.01;65.64;97637.23;1717994;82;25287;-87
2021/10/11 08:45:37;;;;;;;33.35;22.93;;;;;;;11.16;65.05;97640.55;1728395;82;28328;-88
2021/10/11 08:48:04;;;;;;;36.05;24.20;;;;;;;11.36;64.98;97640.52;1728407;82;25879;-88
2021/10/11 08:50:31;;;;;;;40.08;24.15;;;;;;;11.63;64.75;97633.17;1728453;82;25697;-86
2021/10/11 08:52:59;;;;;;;37.05;23.77;;;;;;;11.93;64.11;97633.54;1728571;82;25919;-87
2021/10/11 08:55:26;;;;;;;41.05;24.95;;;;;;;12.13;63.70;97633.44;1728480;82;25890;-87
2021/10/11 08:58:07;;;;;;;38.53;23.22;;;;;;;12.34;63.12;97641.23;1717824;82;28177;-86
2021/10/11 09:00:37;;;;;;;40.33;24.85;;;;;;;12.54;62.89;97640.61;1708774;82;26040;-86
2021/10/11 09:03:06;;;;;;;37.35;22.55;;;;;;;12.79;62.71;97635.76;1728388;82;25790;-87
2021/10/11 09:05:40;;;;;;;36.42;23.62;;;;;;;12.99;62.12;97633.72;1719500;82;25695;-86
2021/10/11 09:08:16;;;;;;;39.60;22.52;;;;;;;13.15;61.35;97630.49;1718944;81;25766;-87
2021/10/11 09:10:56;;;;;;;33.83;22.07;;;;;;;13.14;60.66;97622.55;1708184;82;28458;-87
2021/10/11 09:13:38;;;;;;;39.70;23.15;;;;;;;13.25;60.22;97617.78;1727160;82;25777;-86
2021/10/11 09:16:32;;;;;;;34.88;22.67;;;;;;;13.39;59.93;97618.48;1743768;82;26210;-87
2021/10/11 09:19:25;;;;;;;36.50;19.27;;;;;;;13.56;60.17;97610.05;1744340;81;26465;-86
2021/10/11 09:21:48;;;;;;;37.75;21.70;;;;;;;13.77;59.62;97604.16;1743683;80;25766;-86
2021/10/11 09:24:20;;;;;;;33.50;20.75;;;;;;;14.04;59.36;97597.36;1744053;82;28438;-86
2021/10/11 09:26:59;;;;;;;34.10;20.85;;;;;;;14.18;58.15;97593.12;1744456;82;26294;-87
2021/10/11 09:29:39;;;;;;;34.73;20.00;;;;;;;14.29;58.35;97591.81;1744104;81;25715;-85
2021/10/11 09:32:08;;;;;;;32.73;20.88;;;;;;;14.33;57.51;97596.26;1743999;81;25697;-84
2021/10/11 09:34:40;;;;;;;39.25;20.57;;;;;;;14.38;57.09;97595.02;1744321;82;25842;-85
2021/10/11 09:37:09;;;;;;;47.43;20.77;;;;;;;14.50;56.99;97589.12;1744610;81;27375;-84
2021/10/11 09:39:38;;;;;;;30.92;19.35;;;;;;;14.64;56.69;97583.80;1744326;81;26342;-85
2021/10/11 09:42:13;;;;;;;32.28;20.85;;;;;;;14.76;56.38;97583.82;1744532;81;25772;-86
2021/10/11 09:44:42;;;;;;;33.67;21.20;;;;;;;14.89;55.71;97575.45;1744353;82;26311;-85
2021/10/11 09:47:09;;;;;;;28.73;19.92;;;;;;;15.01;55.57;97572.75;1742803;82;25819;-86
2021/10/11 09:49:38;;;;;;;32.85;21.25;;;;;;;15.14;55.44;97577.42;1744352;82;27537;-84
2021/10/11 09:52:06;;;;;;;32.42;20.60;;;;;;;15.29;55.31;97576.96;1743716;82;25779;-89
2021/10/11 09:54:33;;;;;;;30.77;20.82;;;;;;;15.34;54.44;97571.62;1744281;82;25234;-89
2021/10/11 09:57:00;;;;;;;36.10;21.77;;;;;;;15.35;54.39;97564.29;1744376;82;26440;-85
2021/10/11 09:59:30;;;;;;;39.33;21.90;;;;;;;15.44;54.20;97566.96;1744382;81;25672;-86
2021/10/11 10:01:58;;;;;;;36.55;22.00;;;;;;;15.49;53.95;97559.73;1744338;82;27327;-85
2021/10/11 10:04:30;;;;;;;33.08;20.77;;;;;;;15.60;53.90;97561.33;1744166;82;25772;-84
2021/10/11 10:07:01;;;;;;;34.85;21.65;;;;;;;15.59;53.58;97561.03;1715923;83;25841;-85
2021/10/11 10:09:28;;;;;;;32.42;19.95;;;;;;;15.57;53.45;97550.95;1736545;82;25755;-89
2021/10/11 10:11:57;;;;;;;29.75;18.62;;;;;;;15.55;53.57;97553.08;1744245;82;25693;-84
2021/10/11 10:14:25;;;;;;;30.43;19.05;;;;;;;15.47;53.28;97549.61;1718840;82;27470;-86
2021/10/11 10:16:54;;;;;;;30.20;18.00;;;;;;;15.41;52.72;97553.30;1725272;82;25843;-86
2021/10/11 10:19:41;;;;;;;30.12;19.48;;;;;;;15.20;52.21;97544.40;1743595;81;25386;-85
2021/10/11 10:22:14;;;;;;;32.63;18.90;;;;;;;14.91;52.13;97539.89;1748998;79;26546;-85
2021/10/11 10:24:41;;;;;;;31.93;20.62;;;;;;;14.80;52.38;97538.00;1777940;79;25741;-85
2021/10/11 10:27:10;;;;;;;35.60;18.02;;;;;;;14.75;52.57;97535.97;1777782;79;27572;-84
2021/10/11 10:29:49;;;;;;;30.65;19.12;;;;;;;14.67;52.52;97538.52;1777554;79;25746;-84
2021/10/11 10:32:20;;;;;;;28.87;18.23;;;;;;;14.67;52.83;97534.44;1777969;79;25664;-86
2021/10/11 10:35:00;;;;;;;32.45;18.62;;;;;;;14.78;52.63;97528.19;1777839;79;25867;-84
2021/10/11 10:37:37;;;;;;;28.17;17.45;;;;;;;14.95;52.34;97526.14;1777904;79;25765;-85
2021/10/11 10:40:14;;;;;;;31.55;19.07;;;;;;;15.13;52.69;97514.59;1777767;79;27362;-85
2021/10/11 10:42:41;;;;;;;34.92;20.52;;;;;;;15.30;52.32;97508.44;1777840;80;25841;-84
2021/10/11 10:45:21;;;;;;;30.02;18.70;;;;;;;15.31;51.56;97507.38;1777903;80;25795;-84
2021/10/11 10:47:50;;;;;;;29.52;17.95;;;;;;;15.21;51.40;97497.11;1777995;79;25855;-84
2021/10/11 10:50:21;;;;;;;32.05;18.48;;;;;;;15.28;52.07;97501.05;1777831;79;25694;-84
2021/10/11 10:52:55;;;;;;;28.80;18.50;;;;;;;15.34;51.79;97493.28;1777757;80;27668;-84
2021/10/11 10:55:21;;;;;;;31.42;18.57;;;;;;;15.36;52.02;97490.62;1777790;80;26452;-85
2021/10/11 10:57:55;;;;;;;28.32;17.48;;;;;;;15.46;51.79;97487.28;1777744;79;25762;-85
2021/10/11 11:00:22;;;;;;;31.57;18.90;;;;;;;15.47;51.29;97482.13;1775967;80;25700;-86
2021/10/11 11:02:51;;;;;;;36.88;19.65;;;;;;;15.49;51.04;97478.64;1778039;79;25683;-84
2021/10/11 11:05:20;;;;;;;29.65;18.05;;;;;;;15.39;50.91;97476.55;1777988;80;27557;-85
2021/10/11 11:07:51;;;;;;;28.55;18.15;;;;;;;15.14;50.94;97472.75;1777419;79;25781;-84
2021/10/11 11:10:26;;;;;;;32.75;18.07;;;;;;;15.11;51.13;97471.86;1777769;79;26468;-85
2021/10/11 11:12:59;;;;;;;33.33;18.85;;;;;;;15.20;51.06;97462.83;1777822;79;25853;-87
2021/10/11 11:15:31;;;;;;;26.70;17.12;;;;;;;15.23;50.93;97461.50;1777892;79;25722;-84
2021/10/11 11:18:01;;;;;;;28.25;17.57;;;;;;;15.25;50.92;97456.12;1777862;79;27357;-86
2021/10/11 11:20:33;;;;;;;30.68;17.48;;;;;;;15.28;50.44;97455.64;1777696;79;25779;-84
2021/10/11 11:23:12;;;;;;;30.03;17.50;;;;;;;15.25;50.51;97449.85;1777987;80;25734;-84
2021/10/11 11:25:43;;;;;;;27.05;16.97;;;;;;;15.22;50.60;97449.79;1777533;79;27037;-85
2021/10/11 11:28:21;;;;;;;28.35;17.12;;;;;;;15.21;50.48;97445.98;1777156;80;25836;-87